Flight Track Log - Related Links

Times and Time Zones

All times are in EDT time to prevent confusion due to time zone crossing. See the GJS3657 flight status page for this flight to view local times or setup timezone preferences in your user account.

Time Position Orientation Groundspeed Altitude Reporting Facility
EDT Latitude Longitude Course Direction KTS MPH feet Rate Location/Type
Sun 12:56:34 PM 39.8000 -104.6333 123° Southeast 184 212 7,200  Level Denver TRACON
Sun 12:57:28 PM 39.7667 -104.5667 123° Southeast 238 274 8,600 1,146 Climbing Denver TRACON
Sun 12:58:03 PM 39.7675 -104.5217 89° East 268 308 8,900 1,608 Climbing Denver Center
Sun 12:59:05 PM 39.7675 -104.4031 90° East 304 350 11,200 1,790 Climbing Denver Center
Sun 01:00:07 PM 39.7678 -104.2811 90° East 343 395 12,600 1,536 Climbing Denver Center
Sun 01:01:10 PM 39.7661 -104.1569 91° East 347 399 14,400 1,680 Climbing Denver Center
Sun 01:02:12 PM 39.7647 -104.0133 91° East 370 426 16,100 1,694 Climbing Denver Center
Sun 01:03:14 PM 39.7625 -103.8753 91° East 381 438 17,900 1,500 Climbing Denver Center
Sun 01:04:16 PM 39.7614 -103.7372 91° East 390 449 19,200 1,452 Climbing Denver Center
Sun 01:05:18 PM 39.7606 -103.5950 90° East 393 452 20,900 1,597 Climbing Denver Center
Sun 01:06:20 PM 39.7578 -103.4142 91° East 412 474 22,500 1,403 Climbing Denver Center
Sun 01:07:22 PM 39.7539 -103.2583 92° East 430 495 23,800 1,161 Climbing Denver Center
Sun 01:08:24 PM 39.7519 -103.0986 91° East 441 507 24,900 1,016 Climbing Denver Center
Sun 01:09:26 PM 39.7486 -102.9347 91° East 452 520 25,900 968 Climbing Denver Center
Sun 01:10:28 PM 39.7444 -102.7669 92° East 463 533 26,900 1,065 Climbing Denver Center
Sun 01:11:30 PM 39.7394 -102.5658 92° East 475 547 28,100 968 Climbing Denver Center
Sun 01:12:32 PM 39.7361 -102.4008 91° East 478 550 28,900 823 Climbing Denver Center
Sun 01:13:34 PM 39.7311 -102.2042 92° East 489 563 29,800 677 Climbing Denver Center
Sun 01:14:36 PM 39.7256 -102.0336 92° East 494 568 30,300 629 Climbing Denver Center
Sun 01:15:38 PM 39.7203 -101.8306 92° East 504 580 31,100 532 Climbing Denver Center
Sun 01:16:40 PM 39.7142 -101.6542 93° East 510 587 31,400 532 Climbing Denver Center
Sun 01:17:42 PM 39.7086 -101.4747 92° East 518 596 32,200 774 Climbing Denver Center
Sun 01:18:44 PM 39.7014 -101.2678 93° East 516 594 33,000 629 Climbing Denver Center
Sun 01:19:46 PM 39.6944 -101.0892 93° East 519 597 33,500 677 Climbing Denver Center
Sun 01:20:48 PM 39.6864 -100.8797 93° East 522 601 34,400 726 Climbing Denver Center
Sun 01:21:50 PM 39.6817 -100.7322 92° East 520 598 35,000 720 Climbing Denver Center
Sun 01:22:53 PM 39.6714 -100.4969 93° East 515 593 35,900 613 Climbing Denver Center
Sun 01:24:07 PM 39.6628 -100.3206 94° East 514 592 36,400 485 Climbing Denver Center
Sun 01:25:09 PM 39.6528 -100.0806 93° East 521 600 37,000 290 Climbing Denver Center
Sun 01:26:11 PM 39.6439 -99.8781 93° East 519 597 37,000 97 Level Denver Center
Sun 01:27:13 PM 39.6342 -99.6886 94° East 526 605 37,200 339 Climbing Denver Center
Sun 01:28:15 PM 39.6244 -99.5014 94° East 524 603 37,700 484 Climbing Denver Center
Sun 01:29:17 PM 39.6153 -99.3142 94° East 521 600 38,200 441 Climbing Denver Center
Sun 01:30:31 PM 39.6053 -99.1294 94° East 516 594 38,700 350 Climbing Denver Center
Sun 01:31:34 PM 39.5911 -98.8739 94° East 510 587 39,000 144 Climbing Denver Center
Sun 01:32:36 PM 39.5811 -98.6894 94° East 512 589 39,000  Level Denver Center
Sun 01:33:36 PM 39.5717 -98.5275 94° East 513 590 39,000  Level Kansas City Center
Sun 01:34:36 PM 39.5608 -98.3414 94° East 516 594 39,000  Level Kansas City Center
Sun 01:35:39 PM 39.5497 -98.1553 94° East 517 595 39,000  Level Kansas City Center
Sun 01:36:40 PM 39.5358 -97.9342 95° East 512 589 39,000  Level Kansas City Center
Sun 01:37:43 PM 39.5253 -97.7697 95° East 506 582 39,000  Level Kansas City Center
Sun 01:38:44 PM 39.5133 -97.5897 95° East 503 579 39,000  Level Kansas City Center
Sun 01:39:47 PM 39.4992 -97.3744 95° East 502 578 39,000  Level Kansas City Center
Sun 01:40:48 PM 39.4875 -97.2033 95° East 500 575 39,000  Level Kansas City Center
Sun 01:41:52 PM 39.4742 -97.0325 96° East 499 574 39,000  Level Kansas City Center
Sun 01:42:52 PM 39.4611 -96.8322 95° East 500 575 39,000  Level Kansas City Center
Sun 01:43:54 PM 39.4478 -96.6606 96° East 501 577 39,000  Level Kansas City Center
Sun 01:44:57 PM 39.4317 -96.4581 96° East 504 580 39,000  Level Kansas City Center
Sun 01:45:57 PM 39.4183 -96.2744 95° East 508 585 39,000  Level Kansas City Center
Sun 01:47:01 PM 39.4003 -96.0789 97° East 513 590 39,000  Level Kansas City Center
Sun 01:48:02 PM 39.3869 -95.9050 96° East 510 587 39,000  Level Kansas City Center
Sun 01:49:05 PM 39.3703 -95.6989 96° East 516 594 39,000  Level Kansas City Center
Sun 01:50:07 PM 39.3553 -95.5222 96° East 514 592 39,000  Level Kansas City Center
Sun 01:51:09 PM 39.3367 -95.3122 96° East 519 597 39,000  Level Kansas City Center
Sun 01:52:10 PM 39.3217 -95.1281 96° East 519 597 39,000  Level Kansas City Center
Sun 01:53:13 PM 39.3050 -94.9517 97° East 518 596 39,000  Level Kansas City Center
Sun 01:54:14 PM 39.2889 -94.7425 96° East 522 601 39,000  Level Kansas City Center
Sun 01:55:17 PM 39.3094 -94.5667 81° East 522 601 39,000  Level Kansas City Center
Sun 01:56:18 PM 39.3353 -94.3619 81° East 516 594 39,000  Level Kansas City Center
Sun 01:57:21 PM 39.3569 -94.1886 81° East 512 589 39,000  Level Kansas City Center
Sun 01:58:22 PM 39.3789 -94.0158 81° East 509 586 39,000  Level Kansas City Center
Sun 01:59:25 PM 39.4042 -93.8139 81° East 508 585 39,000  Level Kansas City Center
Sun 02:00:26 PM 39.4297 -93.6189 80° East 510 587 39,000  Level Kansas City Center
Sun 02:01:30 PM 39.4517 -93.4406 81° East 509 586 39,000  Level Kansas City Center
Sun 02:02:31 PM 39.4731 -93.2636 81° East 505 581 39,000  Level Kansas City Center
Sun 02:03:34 PM 39.4939 -93.0858 81° East 506 582 39,000  Level Kansas City Center
Sun 02:04:35 PM 39.5136 -92.9061 82° East 510 587 39,000  Level Kansas City Center
Sun 02:05:39 PM 39.5378 -92.6919 82° East 510 587 39,000  Level Kansas City Center
Sun 02:06:39 PM 39.5575 -92.5094 82° East 507 583 39,000  Level Kansas City Center
Sun 02:07:43 PM 39.5775 -92.3386 81° East 504 580 39,000  Level Kansas City Center
Sun 02:08:44 PM 39.5967 -92.1611 82° East 504 580 39,000  Level Kansas City Center
Sun 02:09:45 PM 39.6189 -91.9503 82° East 501 577 39,000  Level Kansas City Center
Sun 02:10:48 PM 39.6392 -91.7717 82° East 504 580 39,000  Level Kansas City Center
Sun 02:11:48 PM 39.6578 -91.5942 82° East 503 579 39,000  Level Kansas City Center
Sun 02:12:52 PM 39.6764 -91.4156 82° East 504 580 39,000  Level Kansas City Center
Sun 02:13:52 PM 39.6981 -91.2078 82° East 505 581 39,000  Level Kansas City Center
Sun 02:14:57 PM 39.7158 -91.0264 83° East 505 581 39,000  Level Kansas City Center
Sun 02:15:58 PM 39.7328 -90.8456 83° East 504 580 39,000  Level Kansas City Center
Sun 02:17:01 PM 39.7519 -90.6567 82° East 505 581 39,000  Level Kansas City Center
Sun 02:18:02 PM 39.7683 -90.4753 83° East 507 583 39,000  Level Kansas City Center
Sun 02:19:03 PM 39.7856 -90.2953 83° East 505 581 39,000  Level Kansas City Center
Sun 02:20:06 PM 39.8025 -90.1133 83° East 508 585 39,000  Level Kansas City Center
Sun 02:21:06 PM 39.8214 -89.8944 84° East 510 587 39,000  Level Kansas City Center
Sun 02:22:10 PM 39.8375 -89.7122 83° East 511 588 39,000  Level Kansas City Center
Sun 02:23:11 PM 39.8411 -89.5308 88° East 508 585 39,000  Level Kansas City Center
Sun 02:24:15 PM 39.8356 -89.3472 92° East 509 586 39,000  Level Kansas City Center
Sun 02:25:16 PM 39.8278 -89.1622 93° East 511 588 39,000  Level Kansas City Center
Sun 02:26:17 PM 39.8181 -88.9411 93° East 513 590 39,000  Level Kansas City Center
Sun 02:27:21 PM 39.8100 -88.7572 93° East 512 589 39,000  Level Kansas City Center
Sun 02:28:21 PM 39.8008 -88.5731 94° East 512 589 39,000  Level Kansas City Center
Sun 02:29:25 PM 39.7928 -88.3903 93° East 511 588 39,000  Level Kansas City Center
Sun 02:30:26 PM 39.7819 -88.1767 94° East 514 592 39,000  Level Kansas City Center
Sun 02:31:17 PM 39.7722 -88.0311 95° East 513 590 39,000 -850 Level Indianapolis Center
Sun 02:32:19 PM 39.7622 -87.8469 94° East 513 590 37,400 -1,500 Descending Indianapolis Center
Sun 02:33:21 PM 39.7522 -87.6594 94° East 516 594 35,900 -1,452 Descending Indianapolis Center
Sun 02:34:23 PM 39.7422 -87.4803 94° East 504 580 34,400 -1,742 Descending Indianapolis Center
Sun 02:35:25 PM 39.7292 -87.2733 95° East 485 558 32,300 -1,887 Descending Indianapolis Center
Sun 02:36:27 PM 39.7189 -87.0964 94° East 491 565 30,500 -1,597 Descending Indianapolis Center
Sun 02:37:29 PM 39.7086 -86.9231 94° East 485 558 29,000 -1,403 Descending Indianapolis Center
Sun 02:38:31 PM 39.6961 -86.7533 95° East 474 545 27,600 -1,403 Descending Indianapolis Center
Sun 02:39:33 PM 39.6853 -86.5858 95° East 469 540 26,100 -1,597 Descending Indianapolis Center
Sun 02:40:35 PM 39.6717 -86.3903 95° East 462 532 24,300 -1,548 Descending Indianapolis Center
Sun 02:41:37 PM 39.6608 -86.2325 95° East 459 528 22,900 -1,403 Descending Indianapolis Center
Sun 02:42:39 PM 39.6503 -86.0736 95° East 453 521 21,400 -1,452 Descending Indianapolis Center
Sun 02:43:41 PM 39.6386 -85.9178 96° East 441 507 19,900 -1,839 Descending Indianapolis Center
Sun 02:44:43 PM 39.6425 -85.7442 88° East 405 466 17,600 -2,081 Descending Indianapolis Center
Sun 02:45:45 PM 39.6608 -85.6058 80° East 392 451 15,600 -1,984 Descending Indianapolis Center
Sun 02:46:47 PM 39.6781 -85.4722 80° East 382 440 13,500 -1,790 Descending Indianapolis Center
Sun 02:47:49 PM 39.6939 -85.3439 81° East 366 421 11,900 -677 Descending Indianapolis Center
Sun 02:48:51 PM 39.7081 -85.2217 81° East 348 400 12,100 97 Climbing Indianapolis Center
Sun 02:49:53 PM 39.7242 -85.0978 80° East 349 402 12,100 -59 Level Indianapolis Center
Sun 02:50:32 PM 39.7364 -84.9914 81° East 358 412 12,000 -581 Descending Indianapolis Center
Sun 02:50:55 PM 39.7422 -84.9467 80° East 354 407 11,500 -1,091 Descending Indianapolis Center
Sun 02:51:27 PM 39.7497 -84.8844 81° East 351 404 11,000 -787 Descending Indianapolis Center
Sun 02:51:56 PM 39.7578 -84.8386 77° East 342 394 10,700 -896 Descending Indianapolis Center
Sun 02:52:34 PM 39.7850 -84.7644 64° Northeast 300 345 10,000 -677 Descending Indianapolis Center
Sun 02:52:58 PM 39.7928 -84.7361 70° East 312 359 10,000  Level Indianapolis Center
Sun 02:53:40 PM 39.8211 -84.6581 65° Northeast 294 338 10,000  Level Indianapolis Center
Sun 02:54:00 PM 39.8322 -84.6197 69° East 300 345 10,000  Level Indianapolis Center
Sun 02:54:41 PM 39.8542 -84.5594 65° Northeast 300 345 10,000 -581 Level Indianapolis Center
Sun 02:55:02 PM 39.8653 -84.5233 68° East 293 337 9,400 -2,066 Descending Indianapolis Center
Sun 02:55:42 PM 39.8894 -84.4636 62° Northeast 287 330 7,900 -2,032 Descending Indianapolis Center
Sun 02:56:04 PM 39.9025 -84.4283 64° Northeast 290 334 7,300 -1,672 Descending Indianapolis Center
Sun 02:56:43 PM 39.9247 -84.3622 66° East 289 333 6,200 -1,452 Descending Indianapolis Center
Sun 02:57:06 PM 39.9383 -84.3344 57° Northeast 288 331 5,800 -1,800 Descending Indianapolis Center
Sun 02:57:43 PM 39.9692 -84.2783 54° Northeast 278 320 4,400 -1,742 Descending Indianapolis Center
Sun 02:58:08 PM 39.9836 -84.2536 53° Northeast 279 321 4,000 -393 Descending Indianapolis Center
Sun 02:58:44 PM 40.0128 -84.2022 53° Northeast 243 280 4,000  Level Indianapolis Center
Sun 02:59:10 PM 40.0261 -84.1781 54° Northeast 269 310 4,000 -90 Level Indianapolis Center
Sun 02:59:51 PM 40.0436 -84.1300 65° Northeast 213 245 3,900 -484 Descending Indianapolis Center
Sun 03:00:12 PM 40.0367 -84.1139 119° Southeast 228 262 3,500 -1,102 Descending Indianapolis Center
Sun 03:00:40 PM 40.0133 -84.0881 140° Southeast 191 220 3,000 -871 Descending Indianapolis Center
Sun 03:01:14 PM 39.9944 -84.0817 165° South 194 223 2,600 -444 Descending Indianapolis Center
Sun 03:01:34 PM 39.9756 -84.0911 201° Southwest 162 186 2,600  Level Indianapolis Center
Sun 03:02:16 PM 39.9592 -84.1250 238° Southwest 168 193 2,600 -98 Level Indianapolis Center
Sun 03:02:35 PM 39.9531 -84.1372 237° Southwest 135 155 2,500 -590 Descending Indianapolis Center
Sun 03:03:17 PM 39.9394 -84.1642 237° Southwest 143 165 2,000 -689 Descending Indianapolis Center
Sun 03:03:36 PM 39.9311 -84.1778 231° Southwest 125 144 1,800 -290 Descending Indianapolis Center
Sun 03:04:19 PM 39.9219 -84.1967 238° Southwest 138 159 1,700 -140 Descending Indianapolis Center

Login

Don't have an account? Register now (free) for customized features, flight alerts, and more!